sensor_id;sensor_type;location;lat;lon;timestamp;pressure;altitude;pressure_sealevel;temperature;humidity
13593;BME280;6867;50.998;4.250;2022-07-29T00:00:48;101285.97;;;18.99;61.07
13593;BME280;6867;50.998;4.250;2022-07-29T00:03:15;101281.59;;;18.98;61.00
13593;BME280;6867;50.998;4.250;2022-07-29T00:05:42;101288.44;;;19.00;61.24
13593;BME280;6867;50.998;4.250;2022-07-29T00:08:09;101291.50;;;19.04;61.52
13593;BME280;6867;50.998;4.250;2022-07-29T00:10:35;101242.81;;;19.07;60.08
13593;BME280;6867;50.998;4.250;2022-07-29T00:13:04;101243.38;;;19.09;59.97
13593;BME280;6867;50.998;4.250;2022-07-29T00:15:30;101247.00;;;19.15;59.66
13593;BME280;6867;50.998;4.250;2022-07-29T00:17:57;101248.97;;;19.20;59.69
13593;BME280;6867;50.998;4.250;2022-07-29T00:20:24;101247.59;;;19.22;59.45
13593;BME280;6867;50.998;4.250;2022-07-29T00:22:50;101261.16;;;19.17;59.95
13593;BME280;6867;50.998;4.250;2022-07-29T00:25:17;101269.34;;;19.17;60.65
13593;BME280;6867;50.998;4.250;2022-07-29T00:27:44;101273.91;;;19.11;60.36
13593;BME280;6867;50.998;4.250;2022-07-29T00:30:13;101269.97;;;19.02;60.81
13593;BME280;6867;50.998;4.250;2022-07-29T00:32:40;101282.94;;;18.95;61.37
13593;BME280;6867;50.998;4.250;2022-07-29T00:35:07;101273.88;;;18.89;61.51
13593;BME280;6867;50.998;4.250;2022-07-29T00:37:52;101277.59;;;18.83;61.64
13593;BME280;6867;50.998;4.250;2022-07-29T00:40:18;101277.59;;;18.83;61.69
13593;BME280;6867;50.998;4.250;2022-07-29T00:42:47;101268.53;;;18.78;61.75
13593;BME280;6867;50.998;4.250;2022-07-29T00:45:16;101212.34;;;18.88;59.26
13593;BME280;6867;50.998;4.250;2022-07-29T00:47:43;101204.00;;;18.95;58.62
13593;BME280;6867;50.998;4.250;2022-07-29T00:50:12;101211.34;;;18.95;58.68
13593;BME280;6867;50.998;4.250;2022-07-29T00:52:40;101209.88;;;18.87;59.01
13593;BME280;6867;50.998;4.250;2022-07-29T00:55:09;101238.34;;;18.79;59.95
13593;BME280;6867;50.998;4.250;2022-07-29T00:57:36;101245.59;;;18.90;60.23
13593;BME280;6867;50.998;4.250;2022-07-29T01:00:04;101267.34;;;18.90;61.46
13593;BME280;6867;50.998;4.250;2022-07-29T01:02:33;101260.56;;;18.93;61.44
13593;BME280;6867;50.998;4.250;2022-07-29T01:05:00;101264.25;;;18.82;61.99
13593;BME280;6867;50.998;4.250;2022-07-29T01:07:27;101253.41;;;18.87;61.27
13593;BME280;6867;50.998;4.250;2022-07-29T01:09:56;101239.81;;;18.87;61.04
13593;BME280;6867;50.998;4.250;2022-07-29T01:12:25;101232.16;;;18.84;60.68
13593;BME280;6867;50.998;4.250;2022-07-29T01:14:53;101237.09;;;18.87;60.78
13593;BME280;6867;50.998;4.250;2022-07-29T01:17:24;101236.28;;;18.86;60.57
13593;BME280;6867;50.998;4.250;2022-07-29T01:19:59;101226.25;;;18.92;60.37
13593;BME280;6867;50.998;4.250;2022-07-29T01:22:36;101221.84;;;18.86;60.37
13593;BME280;6867;50.998;4.250;2022-07-29T01:25:12;101226.97;;;18.82;60.63
13593;BME280;6867;50.998;4.250;2022-07-29T01:27:55;101207.91;;;18.82;59.96
13593;BME280;6867;50.998;4.250;2022-07-29T01:30:30;101217.06;;;18.76;60.29
13593;BME280;6867;50.998;4.250;2022-07-29T01:33:02;101243.03;;;18.67;61.09
13593;BME280;6867;50.998;4.250;2022-07-29T01:35:33;101245.69;;;18.62;61.47
13593;BME280;6867;50.998;4.250;2022-07-29T01:38:05;101252.09;;;18.56;61.52
13593;BME280;6867;50.998;4.250;2022-07-29T01:40:37;101251.72;;;18.47;61.78
13593;BME280;6867;50.998;4.250;2022-07-29T01:43:10;101247.53;;;18.39;61.55
13593;BME280;6867;50.998;4.250;2022-07-29T01:45:41;101245.78;;;18.33;61.72
13593;BME280;6867;50.998;4.250;2022-07-29T01:48:13;101250.00;;;18.24;62.45
13593;BME280;6867;50.998;4.250;2022-07-29T01:50:47;101246.03;;;18.15;62.53
13593;BME280;6867;50.998;4.250;2022-07-29T01:53:18;101248.66;;;18.10;62.98
13593;BME280;6867;50.998;4.250;2022-07-29T01:55:48;101235.81;;;18.05;62.24
13593;BME280;6867;50.998;4.250;2022-07-29T01:58:17;101249.47;;;17.94;63.05
13593;BME280;6867;50.998;4.250;2022-07-29T02:00:47;101248.31;;;17.89;62.84
13593;BME280;6867;50.998;4.250;2022-07-29T02:03:16;101254.00;;;17.88;63.00
13593;BME280;6867;50.998;4.250;2022-07-29T02:05:45;101249.69;;;17.75;63.57
13593;BME280;6867;50.998;4.250;2022-07-29T02:08:13;101243.31;;;17.70;63.38
13593;BME280;6867;50.998;4.250;2022-07-29T02:10:42;101240.00;;;17.67;63.20
13593;BME280;6867;50.998;4.250;2022-07-29T02:13:11;101244.66;;;17.55;63.60
13593;BME280;6867;50.998;4.250;2022-07-29T02:15:41;101249.91;;;17.45;64.22
13593;BME280;6867;50.998;4.250;2022-07-29T02:18:13;101258.41;;;17.37;64.38
13593;BME280;6867;50.998;4.250;2022-07-29T02:20:45;101266.50;;;17.20;64.98
13593;BME280;6867;50.998;4.250;2022-07-29T02:23:14;101267.47;;;17.02;65.62
13593;BME280;6867;50.998;4.250;2022-07-29T02:25:44;101274.00;;;16.89;65.92
13593;BME280;6867;50.998;4.250;2022-07-29T02:28:15;101276.69;;;16.78;66.37
13593;BME280;6867;50.998;4.250;2022-07-29T02:30:43;101277.84;;;16.70;66.92
13593;BME280;6867;50.998;4.250;2022-07-29T02:33:13;101286.34;;;16.62;67.60
13593;BME280;6867;50.998;4.250;2022-07-29T02:35:41;101287.28;;;16.56;68.13
13593;BME280;6867;50.998;4.250;2022-07-29T02:38:12;101288.22;;;16.50;68.25
13593;BME280;6867;50.998;4.250;2022-07-29T02:40:58;101283.13;;;16.41;68.29
13593;BME280;6867;50.998;4.250;2022-07-29T02:43:26;101278.66;;;16.35;68.51
13593;BME280;6867;50.998;4.250;2022-07-29T02:45:54;101283.72;;;16.32;68.63
13593;BME280;6867;50.998;4.250;2022-07-29T02:48:28;101277.34;;;16.26;68.73
13593;BME280;6867;50.998;4.250;2022-07-29T02:51:02;101275.91;;;16.24;68.67
13593;BME280;6867;50.998;4.250;2022-07-29T02:53:33;101284.13;;;16.17;69.16
13593;BME280;6867;50.998;4.250;2022-07-29T02:56:06;101297.44;;;16.07;69.85
13593;BME280;6867;50.998;4.250;2022-07-29T02:58:38;101300.34;;;15.93;70.45
13593;BME280;6867;50.998;4.250;2022-07-29T03:01:11;101306.53;;;15.82;71.48
13593;BME280;6867;50.998;4.250;2022-07-29T03:03:42;101309.56;;;15.74;71.89
13593;BME280;6867;50.998;4.250;2022-07-29T03:06:12;101296.13;;;15.67;72.27
13593;BME280;6867;50.998;4.250;2022-07-29T03:08:40;101300.09;;;15.65;72.19
13593;BME280;6867;50.998;4.250;2022-07-29T03:11:08;101297.22;;;15.60;72.71
13593;BME280;6867;50.998;4.250;2022-07-29T03:13:36;101299.31;;;15.58;72.58
13593;BME280;6867;50.998;4.250;2022-07-29T03:16:04;101290.94;;;15.48;72.95
13593;BME280;6867;50.998;4.250;2022-07-29T03:18:31;101299.13;;;15.41;73.39
13593;BME280;6867;50.998;4.250;2022-07-29T03:21:00;101293.31;;;15.37;73.49
13593;BME280;6867;50.998;4.250;2022-07-29T03:23:27;101301.91;;;15.34;74.04
13593;BME280;6867;50.998;4.250;2022-07-29T03:25:54;101283.28;;;15.26;74.40
13593;BME280;6867;50.998;4.250;2022-07-29T03:28:21;101279.72;;;15.26;74.41
13593;BME280;6867;50.998;4.250;2022-07-29T03:30:48;101274.97;;;15.21;74.53
13593;BME280;6867;50.998;4.250;2022-07-29T03:33:16;101284.25;;;15.13;74.68
13593;BME280;6867;50.998;4.250;2022-07-29T03:35:42;101294.91;;;15.08;75.33
13593;BME280;6867;50.998;4.250;2022-07-29T03:38:11;101282.66;;;15.06;75.01
13593;BME280;6867;50.998;4.250;2022-07-29T03:40:42;101282.06;;;15.04;75.71
13593;BME280;6867;50.998;4.250;2022-07-29T03:43:12;101282.53;;;15.01;75.71
13593;BME280;6867;50.998;4.250;2022-07-29T03:45:42;101278.22;;;14.93;75.72
13593;BME280;6867;50.998;4.250;2022-07-29T03:48:13;101287.84;;;14.89;76.24
13593;BME280;6867;50.998;4.250;2022-07-29T03:50:42;101279.94;;;14.87;76.35
13593;BME280;6867;50.998;4.250;2022-07-29T03:53:11;101281.44;;;14.83;75.95
13593;BME280;6867;50.998;4.250;2022-07-29T03:55:41;101284.38;;;14.82;76.60
13593;BME280;6867;50.998;4.250;2022-07-29T03:58:10;101303.56;;;14.74;76.69
13593;BME280;6867;50.998;4.250;2022-07-29T04:00:38;101300.22;;;14.78;77.25
13593;BME280;6867;50.998;4.250;2022-07-29T04:03:05;101289.81;;;14.75;77.10
13593;BME280;6867;50.998;4.250;2022-07-29T04:05:32;101303.56;;;14.74;77.20
13593;BME280;6867;50.998;4.250;2022-07-29T04:07:59;101298.16;;;14.74;77.00
13593;BME280;6867;50.998;4.250;2022-07-29T04:10:27;101301.50;;;14.76;77.69
13593;BME280;6867;50.998;4.250;2022-07-29T04:12:54;101301.25;;;14.77;77.88
13593;BME280;6867;50.998;4.250;2022-07-29T04:15:20;101307.25;;;14.79;77.58
13593;BME280;6867;50.998;4.250;2022-07-29T04:17:47;101306.44;;;14.79;77.59
13593;BME280;6867;50.998;4.250;2022-07-29T04:20:14;101307.25;;;14.79;77.58
13593;BME280;6867;50.998;4.250;2022-07-29T04:22:41;101302.47;;;14.81;77.88
13593;BME280;6867;50.998;4.250;2022-07-29T04:25:08;101307.66;;;14.83;77.83
13593;BME280;6867;50.998;4.250;2022-07-29T04:27:39;101301.94;;;14.91;77.73
13593;BME280;6867;50.998;4.250;2022-07-29T04:30:25;101291.28;;;14.96;77.43
13593;BME280;6867;50.998;4.250;2022-07-29T04:32:52;101303.53;;;14.99;77.65
13593;BME280;6867;50.998;4.250;2022-07-29T04:35:19;101308.66;;;15.07;77.68
13593;BME280;6867;50.998;4.250;2022-07-29T04:37:45;101301.31;;;15.14;77.86
13593;BME280;6867;50.998;4.250;2022-07-29T04:40:12;101309.34;;;15.20;77.69
13593;BME280;6867;50.998;4.250;2022-07-29T04:42:40;101305.81;;;15.20;77.55
13593;BME280;6867;50.998;4.250;2022-07-29T04:45:07;101305.06;;;15.31;77.70
13593;BME280;6867;50.998;4.250;2022-07-29T04:47:34;101313.56;;;15.35;76.95
13593;BME280;6867;50.998;4.250;2022-07-29T04:50:01;101309.13;;;15.40;77.23
13593;BME280;6867;50.998;4.250;2022-07-29T04:52:28;101303.72;;;15.40;77.07
13593;BME280;6867;50.998;4.250;2022-07-29T04:54:54;101301.25;;;15.39;76.72
13593;BME280;6867;50.998;4.250;2022-07-29T04:57:21;101301.25;;;15.39;77.05
13593;BME280;6867;50.998;4.250;2022-07-29T04:59:50;101301.28;;;15.51;76.33
13593;BME280;6867;50.998;4.250;2022-07-29T05:02:17;101290.63;;;15.56;76.52
13593;BME280;6867;50.998;4.250;2022-07-29T05:04:43;101286.56;;;15.65;76.15
13593;BME280;6867;50.998;4.250;2022-07-29T05:07:10;101288.13;;;15.73;75.77
13593;BME280;6867;50.998;4.250;2022-07-29T05:09:37;101290.53;;;15.81;75.45
13593;BME280;6867;50.998;4.250;2022-07-29T05:12:04;101298.91;;;15.91;75.70
13593;BME280;6867;50.998;4.250;2022-07-29T05:14:30;101296.50;;;16.01;75.40
13593;BME280;6867;50.998;4.250;2022-07-29T05:16:59;101300.41;;;16.17;74.82
13593;BME280;6867;50.998;4.250;2022-07-29T05:19:25;101301.03;;;16.31;74.71
13593;BME280;6867;50.998;4.250;2022-07-29T05:21:52;101291.97;;;16.49;73.99
13593;BME280;6867;50.998;4.250;2022-07-29T05:24:19;101294.59;;;16.67;73.64
13593;BME280;6867;50.998;4.250;2022-07-29T05:26:46;101302.06;;;16.83;73.10
13593;BME280;6867;50.998;4.250;2022-07-29T05:29:12;101299.34;;;17.07;72.78
13593;BME280;6867;50.998;4.250;2022-07-29T05:31:39;101307.47;;;17.18;72.47
13593;BME280;6867;50.998;4.250;2022-07-29T05:34:08;101311.22;;;17.29;72.70
13593;BME280;6867;50.998;4.250;2022-07-29T05:36:34;101315.41;;;17.60;72.22
13593;BME280;6867;50.998;4.250;2022-07-29T05:39:01;101319.03;;;17.78;71.69
13593;BME280;6867;50.998;4.250;2022-07-29T05:41:28;101313.25;;;18.03;71.21
13593;BME280;6867;50.998;4.250;2022-07-29T05:43:57;101305.53;;;18.62;69.97
13593;BME280;6867;50.998;4.250;2022-07-29T05:46:24;101292.22;;;19.16;68.86
13593;BME280;6867;50.998;4.250;2022-07-29T05:48:51;101265.94;;;19.49;67.29
13593;BME280;6867;50.998;4.250;2022-07-29T05:51:19;101229.97;;;19.52;65.39
13593;BME280;6867;50.998;4.250;2022-07-29T05:53:46;101230.28;;;19.55;65.36
13593;BME280;6867;50.998;4.250;2022-07-29T05:56:13;101220.16;;;19.51;64.73
13593;BME280;6867;50.998;4.250;2022-07-29T05:58:40;101214.25;;;19.32;64.50
13593;BME280;6867;50.998;4.250;2022-07-29T06:01:06;101227.50;;;19.23;64.99
13593;BME280;6867;50.998;4.250;2022-07-29T06:03:33;101248.97;;;19.20;65.79
13593;BME280;6867;50.998;4.250;2022-07-29T06:06:00;101247.16;;;19.30;65.70
13593;BME280;6867;50.998;4.250;2022-07-29T06:08:28;101255.78;;;19.44;65.61
13593;BME280;6867;50.998;4.250;2022-07-29T06:10:55;101254.56;;;19.57;65.05
13593;BME280;6867;50.998;4.250;2022-07-29T06:13:21;101261.19;;;19.61;65.05
13593;BME280;6867;50.998;4.250;2022-07-29T06:15:48;101242.88;;;19.83;64.34
13593;BME280;6867;50.998;4.250;2022-07-29T06:18:15;101232.72;;;20.06;63.47
13593;BME280;6867;50.998;4.250;2022-07-29T06:20:41;101213.47;;;20.23;62.49
13593;BME280;6867;50.998;4.250;2022-07-29T06:23:08;101189.53;;;20.30;61.09
13593;BME280;6867;50.998;4.250;2022-07-29T06:25:37;101177.69;;;20.51;60.33
13593;BME280;6867;50.998;4.250;2022-07-29T06:28:04;101163.13;;;20.78;59.39
13593;BME280;6867;50.998;4.250;2022-07-29T06:30:31;101142.38;;;20.82;58.32
13593;BME280;6867;50.998;4.250;2022-07-29T06:32:58;101122.38;;;20.61;57.54
13593;BME280;6867;50.998;4.250;2022-07-29T06:35:25;101123.34;;;20.45;57.47
13593;BME280;6867;50.998;4.250;2022-07-29T06:37:52;101149.44;;;20.30;58.31
13593;BME280;6867;50.998;4.250;2022-07-29T06:40:19;101151.59;;;20.23;58.44
13593;BME280;6867;50.998;4.250;2022-07-29T06:43:13;101167.97;;;20.23;58.65
13593;BME280;6867;50.998;4.250;2022-07-29T06:45:40;101178.66;;;20.35;58.70
13593;BME280;6867;50.998;4.250;2022-07-29T06:48:08;101189.81;;;20.66;58.65
13593;BME280;6867;50.998;4.250;2022-07-29T06:50:35;101149.69;;;20.66;57.07
13593;BME280;6867;50.998;4.250;2022-07-29T06:53:01;101148.16;;;21.01;56.49
13593;BME280;6867;50.998;4.250;2022-07-29T06:55:28;101136.47;;;21.16;55.81
13593;BME280;6867;50.998;4.250;2022-07-29T06:57:55;101133.84;;;21.61;54.94
13593;BME280;6867;50.998;4.250;2022-07-29T07:00:23;101135.19;;;22.05;54.36
13593;BME280;6867;50.998;4.250;2022-07-29T07:02:50;101128.63;;;22.21;53.72
13593;BME280;6867;50.998;4.250;2022-07-29T07:05:16;101110.13;;;22.73;52.45
13593;BME280;6867;50.998;4.250;2022-07-29T07:07:43;101122.06;;;23.47;51.97
13593;BME280;6867;50.998;4.250;2022-07-29T07:10:10;101094.38;;;23.43;50.89
13593;BME280;6867;50.998;4.250;2022-07-29T07:12:36;101089.91;;;24.16;49.67
13593;BME280;6867;50.998;4.250;2022-07-29T07:15:04;101078.91;;;24.45;48.67
13593;BME280;6867;50.998;4.250;2022-07-29T07:17:32;101072.50;;;24.73;47.90
13593;BME280;6867;50.998;4.250;2022-07-29T07:19:59;101045.94;;;24.45;47.73
13593;BME280;6867;50.998;4.250;2022-07-29T07:22:26;101064.47;;;24.34;48.04
13593;BME280;6867;50.998;4.250;2022-07-29T07:24:52;101070.22;;;24.38;47.62
13593;BME280;6867;50.998;4.250;2022-07-29T07:27:19;101094.06;;;24.42;48.31
13593;BME280;6867;50.998;4.250;2022-07-29T07:29:46;101077.75;;;24.51;47.48
13593;BME280;6867;50.998;4.250;2022-07-29T07:32:12;101076.16;;;24.45;47.64
13593;BME280;6867;50.998;4.250;2022-07-29T07:34:42;101102.38;;;24.03;48.91
13593;BME280;6867;50.998;4.250;2022-07-29T07:37:10;101102.81;;;24.15;48.37
13593;BME280;6867;50.998;4.250;2022-07-29T07:39:36;101137.09;;;24.18;49.16
13593;BME280;6867;50.998;4.250;2022-07-29T07:42:03;101106.75;;;24.33;48.50
13593;BME280;6867;50.998;4.250;2022-07-29T07:44:30;101101.72;;;24.16;48.47
13593;BME280;6867;50.998;4.250;2022-07-29T07:46:56;101110.28;;;24.09;48.82
13593;BME280;6867;50.998;4.250;2022-07-29T07:49:23;101100.97;;;23.81;49.18
13593;BME280;6867;50.998;4.250;2022-07-29T07:51:51;101132.22;;;23.46;50.46
13593;BME280;6867;50.998;4.250;2022-07-29T07:54:18;101138.91;;;23.30;50.81
13593;BME280;6867;50.998;4.250;2022-07-29T07:56:45;101160.09;;;23.53;50.64
13593;BME280;6867;50.998;4.250;2022-07-29T07:59:14;101153.31;;;23.46;50.83
13593;BME280;6867;50.998;4.250;2022-07-29T08:01:40;101127.50;;;23.52;49.75
13593;BME280;6867;50.998;4.250;2022-07-29T08:04:07;101141.78;;;23.88;49.52
13593;BME280;6867;50.998;4.250;2022-07-29T08:06:34;101116.09;;;23.74;49.47
13593;BME280;6867;50.998;4.250;2022-07-29T08:09:03;101146.28;;;24.08;49.77
13593;BME280;6867;50.998;4.250;2022-07-29T08:11:30;101126.91;;;23.94;49.05
13593;BME280;6867;50.998;4.250;2022-07-29T08:13:57;101151.13;;;24.16;49.76
13593;BME280;6867;50.998;4.250;2022-07-29T08:16:24;101141.72;;;24.22;48.90
13593;BME280;6867;50.998;4.250;2022-07-29T08:18:51;101146.22;;;24.42;49.40
13593;BME280;6867;50.998;4.250;2022-07-29T08:21:22;101119.28;;;24.44;48.37
13593;BME280;6867;50.998;4.250;2022-07-29T08:23:50;101135.75;;;24.68;48.43
13593;BME280;6867;50.998;4.250;2022-07-29T08:26:19;101098.41;;;25.10;46.92
13593;BME280;6867;50.998;4.250;2022-07-29T08:28:47;101116.22;;;25.31;46.92
13593;BME280;6867;50.998;4.250;2022-07-29T08:31:16;101100.81;;;25.49;46.52
13593;BME280;6867;50.998;4.250;2022-07-29T08:33:43;101157.47;;;25.50;47.78
13593;BME280;6867;50.998;4.250;2022-07-29T08:36:10;101138.88;;;25.80;47.20
13593;BME280;6867;50.998;4.250;2022-07-29T08:38:38;101164.50;;;25.56;48.43
13593;BME280;6867;50.998;4.250;2022-07-29T08:41:05;101134.00;;;25.91;46.98
13593;BME280;6867;50.998;4.250;2022-07-29T08:43:33;101153.72;;;26.12;47.16
13593;BME280;6867;50.998;4.250;2022-07-29T08:46:02;101120.34;;;25.99;46.51
13593;BME280;6867;50.998;4.250;2022-07-29T08:48:29;101092.59;;;25.96;45.46
13593;BME280;6867;50.998;4.250;2022-07-29T08:50:56;101138.69;;;25.90;46.73
13593;BME280;6867;50.998;4.250;2022-07-29T08:53:26;101131.09;;;26.15;46.08
13593;BME280;6867;50.998;4.250;2022-07-29T08:55:53;101127.31;;;26.24;45.49
13593;BME280;6867;50.998;4.250;2022-07-29T08:58:20;101100.81;;;26.70;44.16
13593;BME280;6867;50.998;4.250;2022-07-29T09:00:51;101120.22;;;26.65;44.77
13593;BME280;6867;50.998;4.250;2022-07-29T09:03:20;101118.19;;;26.84;43.99
13593;BME280;6867;50.998;4.250;2022-07-29T09:05:48;101108.53;;;27.09;43.40
13593;BME280;6867;50.998;4.250;2022-07-29T09:08:15;101078.28;;;27.18;42.37
13593;BME280;6867;50.998;4.250;2022-07-29T09:10:44;101080.97;;;26.95;42.56
13593;BME280;6867;50.998;4.250;2022-07-29T09:13:11;101107.81;;;27.40;42.37
13593;BME280;6867;50.998;4.250;2022-07-29T09:15:38;101084.13;;;27.39;41.56
13593;BME280;6867;50.998;4.250;2022-07-29T09:18:06;101081.22;;;27.66;41.79
13593;BME280;6867;50.998;4.250;2022-07-29T09:20:32;101082.97;;;27.62;41.28
13593;BME280;6867;50.998;4.250;2022-07-29T09:23:13;101083.81;;;27.40;41.29
13593;BME280;6867;50.998;4.250;2022-07-29T09:25:40;101073.53;;;27.32;41.36
13593;BME280;6867;50.998;4.250;2022-07-29T09:28:08;101081.16;;;26.99;41.78
13593;BME280;6867;50.998;4.250;2022-07-29T09:30:36;101082.63;;;27.33;41.13
13593;BME280;6867;50.998;4.250;2022-07-29T09:33:17;101075.97;;;27.34;40.90
13593;BME280;6867;50.998;4.250;2022-07-29T09:35:44;101065.19;;;27.23;40.85
13593;BME280;6867;50.998;4.250;2022-07-29T09:38:11;101067.91;;;26.51;41.85
13593;BME280;6867;50.998;4.250;2022-07-29T09:40:38;101111.75;;;26.61;42.69
13593;BME280;6867;50.998;4.250;2022-07-29T09:43:12;101101.25;;;26.49;42.46
13593;BME280;6867;50.998;4.250;2022-07-29T09:45:39;101055.00;;;26.32;41.50
13593;BME280;6867;50.998;4.250;2022-07-29T09:48:18;101063.16;;;26.38;41.24
13593;BME280;6867;50.998;4.250;2022-07-29T09:50:46;101055.50;;;25.79;41.63
13593;BME280;6867;50.998;4.250;2022-07-29T09:53:30;101035.94;;;25.81;41.07
13593;BME280;6867;50.998;4.250;2022-07-29T09:55:57;101105.59;;;26.37;42.15
13593;BME280;6867;50.998;4.250;2022-07-29T09:58:24;101107.53;;;26.91;41.82
13593;BME280;6867;50.998;4.250;2022-07-29T10:00:53;101052.97;;;27.16;39.97
13593;BME280;6867;50.998;4.250;2022-07-29T10:03:21;101032.84;;;27.15;38.69
13593;BME280;6867;50.998;4.250;2022-07-29T10:06:05;101054.34;;;27.49;39.09
13593;BME280;6867;50.998;4.250;2022-07-29T10:08:31;101015.75;;;27.58;37.83
13593;BME280;6867;50.998;4.250;2022-07-29T10:11:09;101064.44;;;27.76;38.44
13593;BME280;6867;50.998;4.250;2022-07-29T10:13:37;101031.81;;;27.78;37.86
13593;BME280;6867;50.998;4.250;2022-07-29T10:16:05;101043.09;;;27.68;38.14
13593;BME280;6867;50.998;4.250;2022-07-29T10:18:35;101094.16;;;27.57;39.78
13593;BME280;6867;50.998;4.250;2022-07-29T10:21:04;101035.13;;;27.67;37.99
13593;BME280;6867;50.998;4.250;2022-07-29T10:23:31;101059.84;;;27.72;38.81
13593;BME280;6867;50.998;4.250;2022-07-29T10:25:58;101019.84;;;27.61;37.50
13593;BME280;6867;50.998;4.250;2022-07-29T10:28:24;100968.59;;;27.37;36.79
13593;BME280;6867;50.998;4.250;2022-07-29T10:30:52;101004.25;;;27.34;37.52
13593;BME280;6867;50.998;4.250;2022-07-29T10:33:39;100991.22;;;27.25;37.00
13593;BME280;6867;50.998;4.250;2022-07-29T10:36:22;100999.19;;;27.27;37.12
13593;BME280;6867;50.998;4.250;2022-07-29T10:38:55;101002.63;;;27.33;37.01
13593;BME280;6867;50.998;4.250;2022-07-29T10:41:54;101027.59;;;27.27;37.61
13593;BME280;6867;50.998;4.250;2022-07-29T10:44:24;101055.56;;;27.35;38.21
13593;BME280;6867;50.998;4.250;2022-07-29T10:46:52;101029.22;;;27.51;37.63
13593;BME280;6867;50.998;4.250;2022-07-29T10:49:22;101046.56;;;27.51;37.86
13593;BME280;6867;50.998;4.250;2022-07-29T10:52:01;101031.63;;;27.21;37.42
13593;BME280;6867;50.998;4.250;2022-07-29T10:54:39;101041.75;;;27.35;37.70
13593;BME280;6867;50.998;4.250;2022-07-29T10:57:22;101050.16;;;27.52;37.74
13593;BME280;6867;50.998;4.250;2022-07-29T11:00:27;101023.56;;;27.87;37.09
13593;BME280;6867;50.998;4.250;2022-07-29T11:02:54;101020.63;;;27.84;37.03
13593;BME280;6867;50.998;4.250;2022-07-29T11:05:24;101025.41;;;28.00;36.87
13593;BME280;6867;50.998;4.250;2022-07-29T11:08:17;101045.09;;;28.08;37.49
13593;BME280;6867;50.998;4.250;2022-07-29T11:10:45;100957.38;;;28.13;34.61
13593;BME280;6867;50.998;4.250;2022-07-29T11:13:12;100980.56;;;28.52;34.46
13593;BME280;6867;50.998;4.250;2022-07-29T11:15:54;100995.78;;;28.32;35.61
13593;BME280;6867;50.998;4.250;2022-07-29T11:18:21;100957.38;;;28.13;34.25
13593;BME280;6867;50.998;4.250;2022-07-29T11:20:50;100998.69;;;28.27;34.80
13593;BME280;6867;50.998;4.250;2022-07-29T11:23:26;100985.22;;;28.34;34.89
13593;BME280;6867;50.998;4.250;2022-07-29T11:26:15;101009.34;;;28.51;34.92
13593;BME280;6867;50.998;4.250;2022-07-29T11:29:01;100991.69;;;28.29;34.92
13593;BME280;6867;50.998;4.250;2022-07-29T11:31:37;101009.34;;;28.51;35.09
13593;BME280;6867;50.998;4.250;2022-07-29T11:34:22;101011.31;;;28.76;34.80
13593;BME280;6867;50.998;4.250;2022-07-29T11:37:22;100996.34;;;29.12;34.12
13593;BME280;6867;50.998;4.250;2022-07-29T11:40:09;100980.28;;;29.06;33.79
13593;BME280;6867;50.998;4.250;2022-07-29T11:42:46;101000.09;;;28.73;34.84
13593;BME280;6867;50.998;4.250;2022-07-29T11:45:24;100997.88;;;28.26;34.70
13593;BME280;6867;50.998;4.250;2022-07-29T11:47:56;101042.03;;;28.66;35.50
13593;BME280;6867;50.998;4.250;2022-07-29T11:50:31;101036.06;;;29.08;35.27
13593;BME280;6867;50.998;4.250;2022-07-29T11:53:00;100980.72;;;29.25;33.10
13593;BME280;6867;50.998;4.250;2022-07-29T11:55:28;100983.66;;;28.94;33.32
13593;BME280;6867;50.998;4.250;2022-07-29T11:57:59;101034.25;;;29.29;34.14
13593;BME280;6867;50.998;4.250;2022-07-29T12:00:29;101018.63;;;29.24;33.94
13593;BME280;6867;50.998;4.250;2022-07-29T12:02:58;100983.03;;;29.14;33.12
13593;BME280;6867;50.998;4.250;2022-07-29T12:05:35;101017.91;;;29.53;33.66
13593;BME280;6867;50.998;4.250;2022-07-29T12:08:12;100976.75;;;29.99;31.65
13593;BME280;6867;50.998;4.250;2022-07-29T12:10:40;100985.94;;;30.20;31.89
13593;BME280;6867;50.998;4.250;2022-07-29T12:13:07;100992.25;;;30.50;31.75
13593;BME280;6867;50.998;4.250;2022-07-29T12:15:34;100972.69;;;30.47;31.41
13593;BME280;6867;50.998;4.250;2022-07-29T12:18:15;100952.31;;;29.92;31.26
13593;BME280;6867;50.998;4.250;2022-07-29T12:20:43;100981.25;;;29.74;31.56
13593;BME280;6867;50.998;4.250;2022-07-29T12:23:12;101017.50;;;29.90;32.42
13593;BME280;6867;50.998;4.250;2022-07-29T12:25:40;100989.06;;;30.10;31.75
13593;BME280;6867;50.998;4.250;2022-07-29T12:28:10;100958.97;;;30.30;30.92
13593;BME280;6867;50.998;4.250;2022-07-29T12:30:42;100927.81;;;30.54;29.59
13593;BME280;6867;50.998;4.250;2022-07-29T12:33:15;100938.16;;;29.64;30.38
13593;BME280;6867;50.998;4.250;2022-07-29T12:35:43;101001.81;;;29.64;32.70
13593;BME280;6867;50.998;4.250;2022-07-29T12:38:12;101008.59;;;29.75;32.21
13593;BME280;6867;50.998;4.250;2022-07-29T12:40:39;100977.38;;;29.66;31.26
13593;BME280;6867;50.998;4.250;2022-07-29T12:43:08;101005.06;;;29.49;31.93
13593;BME280;6867;50.998;4.250;2022-07-29T12:45:36;101001.56;;;29.22;32.15
13593;BME280;6867;50.998;4.250;2022-07-29T12:48:03;101002.53;;;29.09;32.71
13593;BME280;6867;50.998;4.250;2022-07-29T12:50:30;101014.56;;;29.13;32.95
13593;BME280;6867;50.998;4.250;2022-07-29T12:53:08;100994.38;;;29.39;32.17
13593;BME280;6867;50.998;4.250;2022-07-29T12:55:40;100986.16;;;29.68;31.51
13593;BME280;6867;50.998;4.250;2022-07-29T12:58:08;101013.53;;;29.52;32.02
13593;BME280;6867;50.998;4.250;2022-07-29T13:00:35;101014.22;;;29.41;32.58
13593;BME280;6867;50.998;4.250;2022-07-29T13:03:02;101044.19;;;29.39;33.23
13593;BME280;6867;50.998;4.250;2022-07-29T13:05:46;101054.72;;;29.54;33.05
13593;BME280;6867;50.998;4.250;2022-07-29T13:08:14;101008.91;;;29.83;32.13
13593;BME280;6867;50.998;4.250;2022-07-29T13:10:42;101002.72;;;29.86;31.40
13593;BME280;6867;50.998;4.250;2022-07-29T13:13:11;101020.94;;;30.25;31.50